Hauptseite
METAR-TAF:

METAR-TAF

Flughäfen :

Shijiazhuang, China

Breite: 38-16-51N, Länge: 114-41-48E, Höhe: 233 m

Beobachtung

Neuester Wetterbericht von vor 25 Minuten, um 03:00 UTC
Wind 4 kt aus Südost, variierte zwischen Ost/Nordost und Süd
Temperatur 34°C
Luftfeuchtigkeit 34%
Luftdruck 1001 hPa
Sichtweite 10 km oder mehr
keine Wolken unter 1500 m und keine Kumulonimbus oder Gewitterwolken

METAR: ZBSJ 180300Z 13002MPS 070V180 CAVOK 34/16 Q1001 NOSIG

Zeit: 11:25 (03:25 UTC)

Prognose

Neuester Wetterbericht von vor 6 Stunden und 24 Minuten, um 21:01 UTC
Gültige Prognose vom 18 um 00 UTC bis 18 um 24 UTC
Wind 8 kt aus Süd
Sichtweite: 5000 m
trockener Dunst,

TAF: ZBSJ 172101Z 1800/1824 18004MPS 5000 HZ NSC TX37/1807Z TN23/1821Z

Wetterbeobachtungen und Prognosen von mehr als 4000 Flughäfen (METAR und TAF Bericht).

Die verfügbaren Stationen werden durch gelbe und rote Markierungen auf der Karte dargestellt.

Führen Sie die Maus auf sie, um den Namen der Station zu sehen.

Darauf klicken, um die Beobachtung von Wetterbeobachtungen und Prognosen zu sehen.

Um die Karte zu ändern : klicken Sie auf den grünen Tasten mit einem schwarzen Kreuz Zum Vergrößern, auf den grünen Button mit einem Gedankenstrich zu verkleinern, oder auf die grünen Pfeile für benachbarte Karten.


METAR-TAF: